Time;durP1;ratioP1;P1;durP2;ratioP2;P2;SDS_P1;SDS_P2;PMS_P1;PMS_P2;Temp;Humidity;BMP_temperature;BMP_pressure;BME280_temperature;BME280_humidity;BME280_pressure;Samples;Min_cycle;Max_cycle;Signal;HPM_P1;HPM_P2
2021/09/30 00:01:55;;;;;;;2.00;0.70;;;;;;;21.28;45.79;102334.56;4993063;28;20033;-65
2021/09/30 00:04:20;;;;;;;3.42;0.80;;;;;;;21.27;45.84;102335.50;4993924;28;20082;-65
2021/09/30 00:06:46;;;;;;;1.90;0.70;;;;;;;21.24;45.87;102330.44;4993819;28;20042;-65
2021/09/30 00:09:11;;;;;;;1.75;0.60;;;;;;;21.24;45.86;102330.44;4992893;28;20125;-66
2021/09/30 00:11:48;;;;;;;1.90;0.57;;;;;;;21.22;45.91;102333.22;4993849;28;20105;-64
2021/09/30 00:14:24;;;;;;;1.33;0.65;;;;;;;21.22;45.83;102335.00;4993760;28;20073;-64
2021/09/30 00:17:03;;;;;;;2.28;0.90;;;;;;;21.20;45.75;102340.41;4992817;28;20502;-65
2021/09/30 00:35:52;;;;;;;;;;;;;;;21.13;45.85;102353.25;4993733;28;20047;-65
2021/09/30 00:49:20;;;;;;;1.65;0.60;;;;;;;21.07;45.81;102356.34;4989981;28;20093;-66
2021/09/30 02:29:41;;;;;;;2.78;0.65;;;;;;;20.75;45.41;102383.28;4995808;28;20022;-65
2021/09/30 02:59:16;;;;;;;2.40;0.73;;;;;;;20.69;45.23;102377.56;4994675;28;20033;-65
2021/09/30 03:01:45;;;;;;;2.78;0.80;;;;;;;20.69;45.31;102382.84;4995135;28;20026;-65
2021/09/30 03:04:12;;;;;;;2.42;0.80;;;;;;;20.67;45.37;102380.31;4994615;28;20466;-65
2021/09/30 03:06:40;;;;;;;2.63;0.82;;;;;;;20.68;45.34;102389.09;4994870;28;20058;-65
2021/09/30 03:09:07;;;;;;;2.40;0.70;;;;;;;20.68;45.39;102389.09;4994651;28;20030;-66
2021/09/30 03:11:39;;;;;;;2.45;0.80;;;;;;;20.63;45.25;102377.00;4994724;28;20038;-65
2021/09/30 03:14:06;;;;;;;2.72;0.77;;;;;;;20.63;45.24;102394.66;4994273;28;20560;-65
2021/09/30 03:16:46;;;;;;;2.35;0.82;;;;;;;20.62;45.16;102387.69;4995108;28;20018;-65
2021/09/30 03:24:39;;;;;;;1.70;0.60;;;;;;;20.60;45.02;102395.72;4994890;28;20034;-65
2021/09/30 03:27:05;;;;;;;3.55;0.88;;;;;;;20.59;45.37;102399.31;4994020;28;20054;-64
2021/09/30 03:29:33;;;;;;;2.30;0.70;;;;;;;20.60;45.23;102405.47;4994736;28;20113;-65
2021/09/30 03:32:03;;;;;;;3.58;1.00;;;;;;;20.59;45.11;102407.28;4993964;28;20493;-65
2021/09/30 03:34:32;;;;;;;2.45;0.80;;;;;;;20.58;45.22;102396.78;4994077;28;20489;-64
2021/09/30 03:36:57;;;;;;;2.58;0.82;;;;;;;20.59;45.23;102401.13;4994286;28;20045;-65
2021/09/30 03:39:23;;;;;;;3.63;0.80;;;;;;;20.58;45.12;102397.63;4994159;28;20462;-64
2021/09/30 03:41:50;;;;;;;2.15;0.70;;;;;;;20.57;45.29;102397.72;4993500;28;20098;-64
2021/09/30 03:44:16;;;;;;;1.45;0.70;;;;;;;20.57;45.22;102403.88;4994528;28;20181;-64
2021/09/30 03:46:43;;;;;;;2.42;0.90;;;;;;;20.56;45.06;102404.00;4994164;28;20061;-64
2021/09/30 03:49:30;;;;;;;3.13;0.75;;;;;;;20.54;45.23;102409.38;4993100;28;20037;-65
2021/09/30 03:54:55;;;;;;;1.73;0.63;;;;;;;20.54;45.11;102414.69;4992632;28;20088;-65
2021/09/30 03:59:46;;;;;;;1.73;0.60;;;;;;;20.53;45.00;102428.88;4993936;28;20034;-65
2021/09/30 04:02:11;;;;;;;1.58;0.60;;;;;;;20.52;45.07;102424.53;4993517;28;20474;-65
2021/09/30 04:04:37;;;;;;;1.98;0.70;;;;;;;20.53;45.18;102428.88;4994062;28;20030;-64
2021/09/30 04:07:06;;;;;;;1.65;0.60;;;;;;;20.52;45.17;102435.13;4993594;28;20022;-65
2021/09/30 04:09:33;;;;;;;2.00;0.80;;;;;;;20.52;44.93;102439.56;4993617;28;20027;-65
2021/09/30 04:12:05;;;;;;;2.65;0.85;;;;;;;20.51;45.18;102441.38;4993781;28;20110;-65
2021/09/30 04:14:30;;;;;;;2.15;0.75;;;;;;;20.51;45.20;102444.03;4992785;28;20116;-64
2021/09/30 04:16:59;;;;;;;3.35;0.90;;;;;;;20.50;45.02;102441.47;4993009;28;20026;-65
2021/09/30 04:19:25;;;;;;;2.67;0.90;;;;;;;20.49;45.12;102453.88;4993953;28;20018;-69
2021/09/30 04:21:52;;;;;;;2.17;0.70;;;;;;;20.47;45.14;102453.97;4993412;28;20040;-65
2021/09/30 04:24:20;;;;;;;2.63;0.80;;;;;;;20.47;45.03;102453.09;4993216;28;20101;-65
2021/09/30 04:26:47;;;;;;;1.77;0.80;;;;;;;20.46;45.00;102454.91;4993478;28;20030;-65
2021/09/30 04:29:15;;;;;;;2.85;0.70;;;;;;;20.46;44.94;102459.38;4993018;28;20026;-65
2021/09/30 04:31:43;;;;;;;2.25;0.70;;;;;;;20.44;45.03;102458.59;4993786;28;20026;-64
2021/09/30 04:34:09;;;;;;;1.85;0.65;;;;;;;20.42;44.96;102453.41;4993339;28;20030;-65
2021/09/30 04:36:37;;;;;;;1.70;0.70;;;;;;;20.43;45.04;102456.94;4993150;28;20098;-65
2021/09/30 04:39:03;;;;;;;1.15;0.60;;;;;;;20.42;44.87;102464.00;4993276;28;20100;-65
2021/09/30 04:41:29;;;;;;;1.30;0.70;;;;;;;20.42;44.97;102465.81;4993340;28;20034;-65
2021/09/30 04:43:54;;;;;;;1.33;0.63;;;;;;;20.42;44.96;102468.44;4992858;28;20042;-65
2021/09/30 04:46:20;;;;;;;1.95;0.70;;;;;;;20.42;44.94;102468.44;4993563;28;20031;-65
2021/09/30 04:48:47;;;;;;;2.03;0.80;;;;;;;20.42;44.92;102468.44;4993073;28;20029;-65
2021/09/30 04:51:15;;;;;;;2.25;0.90;;;;;;;20.41;45.00;102466.75;4992680;28;20072;-65
2021/09/30 04:53:41;;;;;;;1.77;0.70;;;;;;;20.40;45.05;102467.72;4993129;28;20593;-66
2021/09/30 04:56:07;;;;;;;1.83;0.70;;;;;;;20.41;44.70;102469.41;4992660;28;20034;-64
2021/09/30 04:58:32;;;;;;;4.35;1.58;;;;;;;20.40;44.72;102465.91;4992812;28;20503;-66
2021/09/30 05:01:04;;;;;;;2.75;0.80;;;;;;;20.39;44.89;102466.00;4992840;28;20041;-65
2021/09/30 05:03:30;;;;;;;3.33;1.70;;;;;;;20.39;44.69;102466.84;4992863;28;20057;-65
2021/09/30 05:05:55;;;;;;;1.45;0.60;;;;;;;20.39;45.05;102468.66;4992035;28;20073;-65
2021/09/30 05:08:21;;;;;;;1.75;0.70;;;;;;;20.39;44.88;102476.59;4992871;28;20030;-65
2021/09/30 05:10:48;;;;;;;1.85;0.50;;;;;;;20.39;44.96;102480.09;4993033;28;20022;-65
2021/09/30 05:13:25;;;;;;;2.22;0.60;;;;;;;20.39;44.78;102481.91;4992583;28;20437;-65
2021/09/30 05:15:51;;;;;;;1.67;0.68;;;;;;;20.38;44.86;102477.56;4991927;28;20043;-64
2021/09/30 05:18:16;;;;;;;1.10;0.50;;;;;;;20.36;45.00;102482.97;4992650;28;20453;-64
2021/09/30 05:20:42;;;;;;;1.70;0.70;;;;;;;20.35;44.42;102485.72;4992486;28;20022;-66
2021/09/30 05:23:07;;;;;;;2.45;0.82;;;;;;;20.31;45.30;102482.38;4992223;28;20030;-65
2021/09/30 05:25:33;;;;;;;2.55;0.70;;;;;;;20.26;45.63;102481.84;4992593;28;20514;-65
2021/09/30 05:28:02;;;;;;;1.88;0.65;;;;;;;20.22;45.78;102475.03;4992668;28;20030;-67
2021/09/30 05:30:28;;;;;;;2.47;0.80;;;;;;;20.20;46.15;102474.28;4992665;28;20037;-64
2021/09/30 05:32:55;;;;;;;1.67;0.65;;;;;;;20.21;46.11;102471.56;4992068;28;20022;-67
2021/09/30 05:35:20;;;;;;;2.65;0.80;;;;;;;20.24;46.39;102473.16;4992908;28;20451;-64
2021/09/30 05:37:46;;;;;;;3.63;0.90;;;;;;;20.28;46.22;102472.88;4992557;28;20517;-65
2021/09/30 05:40:24;;;;;;;2.15;0.70;;;;;;;20.34;46.12;102478.69;4992201;28;20512;-64
2021/09/30 05:42:50;;;;;;;2.20;0.70;;;;;;;20.40;46.35;102475.66;4992618;28;20026;-63
2021/09/30 05:45:17;;;;;;;4.93;0.90;;;;;;;20.45;46.57;102473.56;4992806;28;20022;-65
2021/09/30 05:47:44;;;;;;;2.65;0.75;;;;;;;20.50;46.28;102465.31;4992152;28;20038;-64
2021/09/30 05:50:11;;;;;;;2.40;1.38;;;;;;;20.56;46.81;102470.19;4992121;28;20055;-62
2021/09/30 05:52:37;;;;;;;2.97;0.90;;;;;;;20.61;46.32;102460.16;4992603;28;20109;-65
2021/09/30 05:55:03;;;;;;;2.53;0.80;;;;;;;20.65;46.22;102466.97;4991737;28;20578;-64
2021/09/30 05:57:30;;;;;;;2.90;0.90;;;;;;;20.68;46.00;102463.25;4992671;28;20101;-64
2021/09/30 05:59:57;;;;;;;3.30;1.10;;;;;;;20.70;46.20;102458.72;4992060;28;20116;-66
2021/09/30 06:04:14;;;;;;;3.95;0.88;;;;;;;20.72;46.38;102460.31;4991921;28;20113;-66
2021/09/30 06:09:20;;;;;;;2.55;0.80;;;;;;;20.78;46.04;102465.19;4994379;28;20045;-63
2021/09/30 06:16:12;;;;;;;2.88;0.82;;;;;;;20.88;46.19;102467.22;4991556;28;20100;-63
2021/09/30 06:18:37;;;;;;;2.58;0.90;;;;;;;20.89;45.44;102468.94;4992383;28;20018;-64
2021/09/30 06:21:03;;;;;;;1.65;0.60;;;;;;;20.88;45.88;102469.88;4991920;28;20038;-63
2021/09/30 06:23:28;;;;;;;2.78;1.00;;;;;;;20.89;46.01;102467.13;4991671;28;20080;-64
2021/09/30 06:25:56;;;;;;;3.35;0.82;;;;;;;20.90;46.06;102466.16;4992057;28;20429;-63
2021/09/30 06:28:22;;;;;;;3.00;0.88;;;;;;;20.93;46.15;102470.41;4994445;28;20023;-64
2021/09/30 06:30:47;;;;;;;3.15;0.95;;;;;;;20.96;46.11;102470.19;4994830;28;20046;-64
2021/09/30 06:33:12;;;;;;;3.15;0.70;;;;;;;20.97;46.26;102463.97;4995255;28;20034;-61
2021/09/30 06:35:38;;;;;;;2.78;0.70;;;;;;;21.00;46.29;102469.06;4995538;28;20037;-62
2021/09/30 06:38:06;;;;;;;4.13;0.82;;;;;;;21.02;46.16;102475.09;4994855;28;20031;-64
2021/09/30 06:40:31;;;;;;;2.60;0.80;;;;;;;21.04;46.16;102475.81;4995496;28;20034;-62
2021/09/30 06:42:58;;;;;;;3.08;0.90;;;;;;;21.05;46.22;102480.19;4994811;28;20081;-61
2021/09/30 06:45:24;;;;;;;2.65;0.70;;;;;;;21.08;46.00;102476.47;4995526;28;20057;-62
2021/09/30 06:47:50;;;;;;;3.60;0.80;;;;;;;21.11;45.75;102473.59;4994942;28;20434;-61
2021/09/30 06:50:15;;;;;;;2.10;0.60;;;;;;;21.11;45.00;102468.28;4994632;28;20117;-60
2021/09/30 06:52:41;;;;;;;2.03;0.90;;;;;;;21.11;45.34;102479.78;4995205;28;20092;-61
2021/09/30 06:55:10;;;;;;;3.60;0.85;;;;;;;21.12;45.60;102483.25;4994880;28;20085;-63
2021/09/30 06:57:35;;;;;;;6.93;1.15;;;;;;;21.12;46.07;102493.88;4994857;28;20030;-64
2021/09/30 07:00:06;;;;;;;3.90;1.00;;;;;;;21.11;46.35;102477.13;4994958;28;20037;-63
2021/09/30 07:02:32;;;;;;;3.85;0.93;;;;;;;21.12;45.98;102492.06;4995220;28;20038;-62
2021/09/30 07:04:58;;;;;;;2.35;0.70;;;;;;;21.14;45.98;102487.50;4994435;28;20080;-62
2021/09/30 07:07:23;;;;;;;2.47;1.20;;;;;;;21.16;45.99;102487.41;4995103;28;20029;-62
2021/09/30 07:09:48;;;;;;;3.63;0.90;;;;;;;21.15;45.99;102481.25;4994636;28;20054;-63
2021/09/30 07:12:14;;;;;;;3.53;0.95;;;;;;;21.15;46.24;102491.84;4994442;28;20034;-63
2021/09/30 07:14:40;;;;;;;2.35;0.80;;;;;;;21.14;46.18;102489.28;4994866;28;20038;-65
2021/09/30 07:17:06;;;;;;;3.80;1.23;;;;;;;21.14;46.10;102490.16;4994305;28;20058;-61
2021/09/30 07:19:33;;;;;;;4.38;1.10;;;;;;;21.15;46.09;102488.34;4994229;28;20506;-63
2021/09/30 07:22:00;;;;;;;2.53;0.82;;;;;;;21.14;46.32;102486.66;4994738;28;20034;-63
2021/09/30 07:24:25;;;;;;;3.83;0.90;;;;;;;21.13;46.28;102482.31;4994691;28;20378;-64
2021/09/30 07:26:50;;;;;;;2.20;1.00;;;;;;;21.12;46.51;102481.44;4993733;28;20052;-64
2021/09/30 07:29:16;;;;;;;3.72;0.80;;;;;;;21.13;46.25;102488.47;4994537;28;20027;-61
2021/09/30 07:31:41;;;;;;;3.08;1.00;;;;;;;21.12;46.44;102486.75;4994377;28;20040;-62
2021/09/30 07:34:11;;;;;;;2.90;0.82;;;;;;;21.13;46.45;102488.47;4993720;28;20145;-63
2021/09/30 07:36:39;;;;;;;3.10;0.85;;;;;;;21.14;46.72;102494.59;4994174;28;20386;-62
2021/09/30 07:39:04;;;;;;;3.47;1.02;;;;;;;21.15;46.62;102496.31;4993507;28;20041;-63
2021/09/30 07:41:34;;;;;;;2.70;0.88;;;;;;;21.14;46.26;102498.13;4994613;28;20022;-62
2021/09/30 07:43:59;;;;;;;1.83;0.80;;;;;;;21.15;46.43;102496.31;4993999;28;20030;-62
2021/09/30 07:46:27;;;;;;;4.00;1.00;;;;;;;21.14;46.97;102489.28;4993739;28;20100;-62
2021/09/30 07:48:52;;;;;;;6.20;1.35;;;;;;;21.15;48.31;102499.81;4993984;28;20038;-61
2021/09/30 07:51:18;;;;;;;7.20;1.50;;;;;;;21.17;48.99;102499.69;4993832;28;20107;-61
2021/09/30 07:53:43;;;;;;;6.55;1.30;;;;;;;21.20;49.07;102491.53;4994153;28;20054;-64
2021/09/30 07:56:11;;;;;;;5.43;1.20;;;;;;;21.17;49.42;102495.25;4994178;28;20029;-63
2021/09/30 07:58:37;;;;;;;5.82;1.63;;;;;;;21.19;49.30;102501.31;4994075;28;20272;-63
2021/09/30 08:01:05;;;;;;;5.00;1.30;;;;;;;21.21;49.49;102501.19;4993421;28;20023;-62
2021/09/30 08:03:30;;;;;;;7.78;1.40;;;;;;;21.23;49.56;102503.75;4994059;28;20280;-62
2021/09/30 08:05:56;;;;;;;7.50;1.67;;;;;;;21.24;49.28;102508.94;4993894;28;20042;-61
2021/09/30 08:08:21;;;;;;;4.50;1.20;;;;;;;21.24;49.35;102514.25;4993715;28;20426;-60
2021/09/30 08:10:49;;;;;;;7.80;1.77;;;;;;;21.24;49.21;102513.38;4994140;28;20367;-62
2021/09/30 08:13:14;;;;;;;9.02;2.00;;;;;;;21.24;48.99;102508.06;4993629;28;20026;-63
2021/09/30 08:15:40;;;;;;;6.53;1.50;;;;;;;21.22;48.55;102512.63;4993616;28;20041;-65
2021/09/30 08:18:08;;;;;;;7.68;1.52;;;;;;;21.16;48.02;102516.56;4993540;28;20025;-63
2021/09/30 08:20:41;;;;;;;5.60;1.42;;;;;;;21.13;46.83;102524.72;4993953;28;20061;-64
2021/09/30 08:23:12;;;;;;;6.22;1.65;;;;;;;21.12;48.34;102517.72;4989511;28;20019;-63
2021/09/30 08:25:39;;;;;;;6.97;1.40;;;;;;;21.11;48.52;102526.63;4998545;28;20050;-66
2021/09/30 08:28:04;;;;;;;6.80;1.50;;;;;;;21.11;48.57;102516.00;4997804;28;20494;-65
2021/09/30 08:30:30;;;;;;;4.80;1.35;;;;;;;21.14;48.65;102508.72;4997648;28;20042;-67
2021/09/30 08:32:55;;;;;;;4.20;1.30;;;;;;;21.19;48.45;102521.66;4997216;28;20042;-67
2021/09/30 08:35:21;;;;;;;6.32;1.60;;;;;;;21.22;47.67;102513.50;4993480;28;20394;-64
2021/09/30 08:37:46;;;;;;;6.45;1.55;;;;;;;21.25;47.81;102513.28;4993768;28;20031;-67
2021/09/30 08:40:12;;;;;;;5.55;1.77;;;;;;;21.32;48.13;102526.97;4993562;28;20466;-64
2021/09/30 08:42:38;;;;;;;3.85;1.30;;;;;;;21.35;47.93;102519.66;4993649;28;20106;-63
2021/09/30 08:45:06;;;;;;;5.20;1.60;;;;;;;21.40;48.05;102529.94;4990983;28;20034;-64
2021/09/30 08:47:31;;;;;;;4.55;1.23;;;;;;;21.43;47.91;102534.19;4993584;28;20035;-64
2021/09/30 08:49:58;;;;;;;5.30;2.47;;;;;;;21.47;47.73;102533.03;4992297;28;20054;-64
2021/09/30 08:52:23;;;;;;;4.63;1.48;;;;;;;21.51;47.67;102534.56;4994053;28;20417;-62
2021/09/30 08:54:48;;;;;;;5.75;1.58;;;;;;;21.52;47.82;102536.22;4993069;28;20081;-64
2021/09/30 08:57:14;;;;;;;8.30;1.77;;;;;;;21.54;47.39;102524.56;4993277;28;20045;-63
2021/09/30 08:59:40;;;;;;;5.15;1.45;;;;;;;21.56;47.50;102527.13;4994387;28;20026;-65
2021/09/30 09:02:15;;;;;;;4.72;1.20;;;;;;;21.58;47.58;102530.50;4994843;28;20050;-69
2021/09/30 09:04:52;;;;;;;8.07;1.17;;;;;;;21.57;47.72;102528.81;4993589;28;20039;-64
2021/09/30 09:07:25;;;;;;;6.72;1.40;;;;;;;21.57;47.78;102531.47;4994260;28;20082;-63
2021/09/30 09:09:50;;;;;;;8.43;1.20;;;;;;;21.62;47.72;102520.50;4995058;28;20546;-63
2021/09/30 09:12:17;;;;;;;3.90;1.50;;;;;;;21.60;47.79;102523.28;4992717;28;20137;-67
2021/09/30 09:14:43;;;;;;;4.78;1.05;;;;;;;21.60;47.80;102520.63;4992973;28;20057;-68
2021/09/30 09:17:13;;;;;;;7.40;1.75;;;;;;;21.61;47.88;102516.19;4992619;28;20063;-68
2021/09/30 09:19:41;;;;;;;5.95;1.50;;;;;;;21.59;48.07;102516.28;4992964;28;20089;-69
2021/09/30 09:22:11;;;;;;;6.30;1.27;;;;;;;21.59;47.92;102518.94;4992888;28;20551;-70
2021/09/30 09:24:53;;;;;;;4.28;1.25;;;;;;;21.64;47.56;102523.94;4992856;28;20034;-65
2021/09/30 09:27:42;;;;;;;6.60;1.48;;;;;;;21.63;47.88;102519.56;4995144;28;20544;-70
2021/09/30 09:30:34;;;;;;;7.00;1.20;;;;;;;21.62;47.89;102526.69;5002091;28;20677;-70
2021/09/30 09:33:10;;;;;;;5.57;1.25;;;;;;;21.60;47.75;102528.59;4996101;28;20053;-69
2021/09/30 09:38:31;;;;;;;;;;;;;;;21.60;47.76;102519.78;5000188;28;20034;-69
2021/09/30 09:41:05;;;;;;;6.55;1.35;;;;;;;21.62;47.52;102520.50;4997865;28;19913;-68
2021/09/30 09:43:36;;;;;;;4.65;1.48;;;;;;;21.64;47.64;102524.78;4993784;28;20393;-66
2021/09/30 09:46:03;;;;;;;7.05;1.63;;;;;;;21.66;47.36;102516.69;4992529;28;20043;-70
2021/09/30 09:48:32;;;;;;;3.25;1.20;;;;;;;21.67;47.59;102513.09;4996379;28;20046;-73
2021/09/30 09:50:57;;;;;;;4.60;1.15;;;;;;;21.67;47.46;102515.75;4999022;28;20042;-69
2021/09/30 09:53:32;;;;;;;3.53;1.13;;;;;;;21.69;46.10;102519.16;4994954;28;20045;-64
2021/09/30 09:56:18;;;;;;;4.68;1.20;;;;;;;21.67;46.49;102513.09;4992367;28;20034;-64
2021/09/30 09:58:55;;;;;;;4.82;1.30;;;;;;;21.69;47.26;102506.72;4992517;28;20022;-65
2021/09/30 10:01:27;;;;;;;4.50;1.38;;;;;;;21.73;47.24;102508.22;4993406;28;20468;-67
2021/09/30 10:04:04;;;;;;;3.55;1.10;;;;;;;21.73;47.39;102502.06;4995882;28;20375;-61
2021/09/30 10:06:32;;;;;;;5.13;1.20;;;;;;;21.74;47.49;102501.94;4996255;28;20049;-65
2021/09/30 10:09:04;;;;;;;4.45;0.98;;;;;;;21.76;47.37;102507.13;4995331;28;20133;-64
2021/09/30 10:11:29;;;;;;;3.15;1.10;;;;;;;21.76;47.27;102496.50;4996116;28;20026;-64
2021/09/30 10:13:56;;;;;;;4.97;1.05;;;;;;;21.78;47.19;102493.75;4995191;28;20032;-64
2021/09/30 10:16:25;;;;;;;6.07;1.10;;;;;;;21.77;47.15;102498.22;4996187;28;20026;-66
2021/09/30 10:18:52;;;;;;;4.55;1.40;;;;;;;21.77;47.32;102490.25;4995836;28;20196;-67
2021/09/30 10:21:21;;;;;;;5.10;2.08;;;;;;;21.80;47.31;102490.03;4997869;28;20038;-65
2021/09/30 10:24:03;;;;;;;5.97;3.83;;;;;;;21.83;47.50;102483.69;4997036;28;20054;-67
2021/09/30 10:26:34;;;;;;;8.30;5.38;;;;;;;21.80;47.54;102484.72;4996288;28;20030;-65
2021/09/30 10:28:59;;;;;;;9.25;7.25;;;;;;;21.80;47.71;102478.59;4995645;28;20105;-67
2021/09/30 10:31:38;;;;;;;12.13;9.68;;;;;;;21.79;47.79;102477.72;4996022;28;20065;-65
2021/09/30 10:34:06;;;;;;;12.38;10.95;;;;;;;21.80;48.03;102478.59;4995693;28;20117;-65
2021/09/30 10:36:34;;;;;;;15.55;12.90;;;;;;;21.77;48.15;102477.00;4995451;28;20386;-65
2021/09/30 10:39:22;;;;;;;15.57;13.63;;;;;;;21.78;48.22;102476.03;4995142;28;20509;-65
2021/09/30 10:41:53;;;;;;;18.95;15.52;;;;;;;21.74;48.04;102478.03;4995341;28;20113;-65
2021/09/30 10:44:24;;;;;;;14.65;13.25;;;;;;;21.73;47.76;102483.50;4995468;28;20466;-65
2021/09/30 10:46:58;;;;;;;15.70;13.95;;;;;;;21.71;45.98;102472.97;4995092;28;20057;-66
2021/09/30 10:49:33;;;;;;;15.80;12.98;;;;;;;21.67;47.56;102478.63;4995031;28;20035;-63
2021/09/30 10:52:14;;;;;;;15.95;13.93;;;;;;;21.65;48.21;102478.72;4995318;28;20089;-63
2021/09/30 10:54:41;;;;;;;16.95;13.82;;;;;;;21.62;48.29;102476.28;4995463;28;20121;-62
2021/09/30 10:57:37;;;;;;;17.45;13.60;;;;;;;21.61;48.53;102484.34;4994564;28;20197;-64
2021/09/30 11:00:05;;;;;;;14.88;12.85;;;;;;;21.59;48.14;102481.81;4995113;28;20101;-66
2021/09/30 11:02:30;;;;;;;14.05;12.32;;;;;;;21.56;48.52;102480.19;4995262;28;20132;-64
2021/09/30 11:05:08;;;;;;;13.82;12.30;;;;;;;21.54;48.45;102482.13;4994575;28;20046;-63
2021/09/30 11:07:38;;;;;;;14.45;11.63;;;;;;;21.52;48.45;102475.22;4995142;28;20026;-64
2021/09/30 11:10:22;;;;;;;13.82;11.95;;;;;;;21.52;48.51;102468.13;4994394;28;20085;-63
2021/09/30 11:13:16;;;;;;;11.45;10.25;;;;;;;21.51;48.68;102468.25;4994232;28;20026;-62
2021/09/30 11:16:00;;;;;;;11.30;9.70;;;;;;;21.48;48.58;102466.63;4995182;28;20042;-63
2021/09/30 11:18:55;;;;;;;12.00;10.75;;;;;;;21.48;48.50;102463.13;4994679;28;20030;-63
2021/09/30 11:21:42;;;;;;;11.30;10.10;;;;;;;21.48;48.44;102463.13;4994775;28;20042;-63
2021/09/30 11:24:11;;;;;;;10.57;9.48;;;;;;;21.46;48.46;102465.00;4994440;28;20044;-62
2021/09/30 11:26:49;;;;;;;11.90;10.10;;;;;;;21.46;48.53;102462.34;4995108;28;20022;-62
2021/09/30 11:29:20;;;;;;;10.25;9.15;;;;;;;21.46;48.60;102465.88;4994867;28;20433;-62
2021/09/30 11:31:58;;;;;;;13.27;9.68;;;;;;;21.46;48.49;102467.66;4994270;28;20044;-62
2021/09/30 11:34:32;;;;;;;10.77;9.00;;;;;;;21.45;48.48;102450.06;4995002;28;20030;-63
2021/09/30 11:36:59;;;;;;;;;;;;;;;21.46;48.34;102443.78;4994640;28;20054;-63
2021/09/30 11:39:31;;;;;;;13.98;8.95;;;;;;;21.46;48.21;102443.78;4994376;28;20012;-63
2021/09/30 11:41:57;;;;;;;11.05;8.45;;;;;;;21.47;48.47;102450.78;4994103;28;20034;-63
2021/09/30 11:44:22;;;;;;;10.82;8.55;;;;;;;21.45;48.43;102447.41;4994495;28;20058;-62
2021/09/30 11:46:53;;;;;;;10.20;8.50;;;;;;;21.43;48.33;102438.69;4993756;28;20030;-63
2021/09/30 11:49:19;;;;;;;8.82;7.65;;;;;;;21.43;48.18;102436.03;4994297;28;20029;-62
2021/09/30 11:51:52;;;;;;;11.55;8.73;;;;;;;21.44;48.40;102432.44;4994619;28;20397;-62
2021/09/30 11:54:35;;;;;;;9.60;7.85;;;;;;;21.44;48.33;102424.50;4993974;28;20022;-62
2021/09/30 11:57:00;;;;;;;10.75;7.80;;;;;;;21.45;48.43;102423.53;4994087;28;20080;-60
2021/09/30 11:59:29;;;;;;;11.02;7.63;;;;;;;21.43;48.42;102420.13;4994300;28;20038;-63
2021/09/30 12:01:56;;;;;;;8.85;7.60;;;;;;;21.43;48.46;102415.69;4994161;28;20164;-63
2021/09/30 12:04:31;;;;;;;10.93;8.10;;;;;;;21.45;48.36;102420.88;4994338;28;20464;-63
2021/09/30 12:06:57;;;;;;;11.30;7.30;;;;;;;21.46;48.29;102420.78;4992991;28;20023;-62
2021/09/30 12:09:23;;;;;;;8.88;6.72;;;;;;;21.46;48.34;102415.47;4994115;28;20037;-61
2021/09/30 12:12:00;;;;;;;8.98;6.53;;;;;;;21.46;48.27;102411.97;4993671;28;20022;-62
2021/09/30 12:14:35;;;;;;;8.90;7.05;;;;;;;21.46;48.13;102411.97;4993610;28;20049;-62
2021/09/30 12:17:03;;;;;;;8.95;6.38;;;;;;;21.46;48.26;102404.88;4993578;28;20018;-63
2021/09/30 12:19:31;;;;;;;7.57;6.20;;;;;;;21.46;48.27;102414.59;4993884;28;20050;-64
2021/09/30 12:21:56;;;;;;;9.75;6.28;;;;;;;21.45;48.23;102411.13;4992991;28;20537;-63
2021/09/30 12:24:25;;;;;;;8.15;6.25;;;;;;;21.45;48.30;102399.69;4993685;28;20117;-61
2021/09/30 12:26:51;;;;;;;9.55;6.68;;;;;;;21.42;48.34;102400.72;4993501;28;20019;-61
2021/09/30 12:29:17;;;;;;;9.10;6.30;;;;;;;21.43;48.38;102401.56;4993259;28;20478;-62
2021/09/30 12:31:45;;;;;;;7.72;5.72;;;;;;;21.44;48.41;102397.97;4993293;28;20458;-61
2021/09/30 12:34:23;;;;;;;7.50;5.68;;;;;;;21.45;48.09;102399.69;4993293;28;20029;-62
2021/09/30 12:36:49;;;;;;;9.73;5.97;;;;;;;21.46;48.02;102398.69;4993142;28;20030;-62
2021/09/30 12:39:26;;;;;;;7.22;5.38;;;;;;;21.47;48.15;102395.09;4993374;28;20374;-62
2021/09/30 12:42:10;;;;;;;8.25;5.68;;;;;;;21.43;48.07;102389.19;4992453;28;20117;-62
2021/09/30 12:44:35;;;;;;;7.57;5.68;;;;;;;21.43;48.24;102389.19;4993271;28;20363;-61
2021/09/30 12:47:00;;;;;;;8.50;5.72;;;;;;;21.44;48.02;102387.34;4993102;28;20033;-61
2021/09/30 12:49:25;;;;;;;7.38;5.15;;;;;;;21.44;48.08;102387.34;4992568;28;20077;-62
2021/09/30 12:51:53;;;;;;;9.40;4.95;;;;;;;21.43;48.11;102396.25;4993008;28;20034;-62
2021/09/30 12:54:29;;;;;;;6.75;4.95;;;;;;;21.42;47.87;102382.16;4993419;28;20050;-62
2021/09/30 12:57:08;;;;;;;8.70;4.40;;;;;;;21.44;47.99;102390.00;4992429;28;20461;-61
2021/09/30 12:59:33;;;;;;;5.90;4.40;;;;;;;21.42;48.22;102392.78;4993118;28;20064;-63
2021/09/30 13:02:03;;;;;;;7.70;4.60;;;;;;;21.41;48.09;102388.41;4992836;28;20065;-62
2021/09/30 13:04:28;;;;;;;6.97;4.45;;;;;;;21.42;48.24;102376.84;4992802;28;20041;-63
2021/09/30 13:06:59;;;;;;;6.40;4.07;;;;;;;21.43;48.09;102370.59;4992589;28;20113;-62
2021/09/30 13:09:33;;;;;;;6.85;4.18;;;;;;;21.42;48.16;102366.25;4993050;28;20287;-62
2021/09/30 13:12:14;;;;;;;7.25;4.10;;;;;;;21.42;48.04;102374.22;4992709;28;20030;-64
2021/09/30 13:14:55;;;;;;;6.10;3.88;;;;;;;21.43;47.90;102367.97;4992794;28;20466;-64
2021/09/30 13:17:22;;;;;;;6.78;3.72;;;;;;;21.45;47.93;102366.03;4992444;28;20036;-64
2021/09/30 13:19:56;;;;;;;5.80;3.80;;;;;;;21.46;47.94;102362.44;4992821;28;20030;-61
2021/09/30 13:22:24;;;;;;;5.88;3.70;;;;;;;21.46;47.80;102351.81;4992627;28;20513;-62
2021/09/30 13:24:51;;;;;;;7.88;4.00;;;;;;;21.45;47.87;102347.47;4992167;28;20113;-62
2021/09/30 13:27:29;;;;;;;6.47;3.92;;;;;;;21.45;47.96;102346.63;4992495;28;20125;-62
2021/09/30 13:29:56;;;;;;;5.45;3.60;;;;;;;21.46;47.64;102350.97;4992378;28;20023;-61
2021/09/30 13:32:24;;;;;;;5.78;3.65;;;;;;;21.45;47.92;102343.97;4992232;28;20475;-62
2021/09/30 13:34:49;;;;;;;7.05;3.72;;;;;;;21.44;47.75;102334.31;4992119;28;20034;-62
2021/09/30 13:37:15;;;;;;;6.47;3.20;;;;;;;21.46;47.84;102337.69;4995465;28;20532;-63
2021/09/30 13:39:41;;;;;;;6.20;3.22;;;;;;;21.49;47.71;102333.06;4997333;28;20280;-62
2021/09/30 13:42:06;;;;;;;5.63;3.10;;;;;;;21.49;47.75;102325.13;4997467;28;20124;-63
2021/09/30 13:44:32;;;;;;;6.72;2.95;;;;;;;21.48;47.76;102322.53;4996796;28;20438;-63
2021/09/30 13:46:57;;;;;;;6.13;3.58;;;;;;;21.47;47.93;102315.53;4995840;28;20114;-62
2021/09/30 13:49:25;;;;;;;7.63;3.13;;;;;;;21.46;47.84;102320.00;4996127;28;20034;-62
2021/09/30 13:51:50;;;;;;;5.40;2.63;;;;;;;21.45;48.09;102310.34;4995847;28;20031;-62
2021/09/30 13:54:16;;;;;;;6.18;3.33;;;;;;;21.44;48.13;102313.09;4996708;28;20035;-63
2021/09/30 13:56:41;;;;;;;5.68;3.05;;;;;;;21.44;48.22;102303.31;4996156;28;20386;-62
2021/09/30 13:59:06;;;;;;;5.80;2.90;;;;;;;21.43;48.18;102303.44;4995628;28;20137;-63
2021/09/30 14:01:32;;;;;;;6.00;2.80;;;;;;;21.42;48.18;102305.25;4996640;28;20030;-61
2021/09/30 14:03:57;;;;;;;6.30;3.05;;;;;;;21.42;48.03;102297.28;4995608;28;20432;-62
2021/09/30 14:06:25;;;;;;;6.85;2.80;;;;;;;21.43;48.26;102299.00;4996125;28;20022;-61
2021/09/30 14:08:53;;;;;;;7.35;3.08;;;;;;;21.44;48.14;102284.75;4996083;28;20027;-61
2021/09/30 14:11:20;;;;;;;5.65;2.85;;;;;;;21.44;48.19;102291.88;4996303;28;20034;-62
2021/09/30 14:14:13;;;;;;;4.53;2.50;;;;;;;21.43;48.14;102287.53;4995774;28;20121;-62
2021/09/30 14:16:41;;;;;;;5.82;2.75;;;;;;;21.46;48.08;102284.66;4995941;28;20081;-63
2021/09/30 14:19:06;;;;;;;4.95;2.55;;;;;;;21.46;48.15;102282.00;4996261;28;20133;-63
2021/09/30 14:21:32;;;;;;;5.05;2.40;;;;;;;21.45;48.07;102275.03;4994533;28;20113;-61
2021/09/30 14:24:31;;;;;;;6.15;2.22;;;;;;;21.44;48.21;102270.66;4995739;28;20030;-62
2021/09/30 14:26:58;;;;;;;3.90;2.20;;;;;;;21.43;48.24;102267.19;4995194;28;20041;-64
2021/09/30 14:29:23;;;;;;;4.80;2.45;;;;;;;21.44;48.07;102268.84;4996303;28;20030;-63